EBAW/ANR METAR and TAF weather

Enter ICAO airport designator
Station Type Date Time Source
EBAW METAR 2020/06/06 18:50 UTC NOAA

EBAW 061850Z AUTO 25016KT 9999 DZ OVC042/// 13/05 Q1001


Station Type Date Time Source
EBAW Decoded METAR 2020/06/06 18:50 UTC NOAA

Antwerpen / Deurne, Belgium (EBAW) 51-12N 004-28E 14M
Jun 06, 2020 - 02:50 PM EDT / 2020.06.06 1850 UTC
Wind: from the WSW (250 degrees) at 18 MPH (16 KT):0
Visibility: greater than 7 mile(s):0
Sky conditions: overcast
Weather: drizzle
Temperature: 55 F (13 C)
Dew Point: 41 F (5 C)
Relative Humidity: 58%
Pressure (altimeter): 29.56 in. Hg (1001 hPa)
ob: EBAW 061850Z AUTO 25016KT 9999 DZ OVC042/// 13/05 Q1001
cycle: 19

Station Type Date Time Source
EBAW TAF 2019/07/25 18:27 UTC NOAA

TAF TAF EBAW 251700Z 2518/2606 11007KT CAVOK PROB30
TEMPO 2518/2520 VRB15G30KT 3500 SHRA TSRA

Example: see airport list